sensor_id;sensor_type;location;lat;lon;timestamp;P1;durP1;ratioP1;P2;durP2;ratioP2
27225;SDS011;14732;51.074;3.788;2022-09-09T00:04:41;5.78;;;1.60;;
27225;SDS011;14732;51.074;3.788;2022-09-09T00:16:32;8.57;;;1.58;;
27225;SDS011;14732;51.074;3.788;2022-09-09T00:21:34;7.30;;;1.60;;
27225;SDS011;14732;51.074;3.788;2022-09-09T00:24:08;4.88;;;1.52;;
27225;SDS011;14732;51.074;3.788;2022-09-09T00:31:55;7.05;;;1.50;;
27225;SDS011;14732;51.074;3.788;2022-09-09T00:34:24;4.57;;;1.20;;
27225;SDS011;14732;51.074;3.788;2022-09-09T00:36:53;5.18;;;1.48;;
27225;SDS011;14732;51.074;3.788;2022-09-09T00:39:41;3.63;;;1.38;;
27225;SDS011;14732;51.074;3.788;2022-09-09T00:44:51;4.10;;;1.25;;
27225;SDS011;14732;51.074;3.788;2022-09-09T00:50:01;4.00;;;1.33;;
27225;SDS011;14732;51.074;3.788;2022-09-09T00:56:09;4.50;;;1.38;;
27225;SDS011;14732;51.074;3.788;2022-09-09T00:58:38;4.40;;;1.00;;
27225;SDS011;14732;51.074;3.788;2022-09-09T01:01:07;5.43;;;1.38;;
27225;SDS011;14732;51.074;3.788;2022-09-09T01:03:47;6.97;;;1.42;;
27225;SDS011;14732;51.074;3.788;2022-09-09T01:12:01;3.53;;;1.40;;
27225;SDS011;14732;51.074;3.788;2022-09-09T01:14:43;5.07;;;1.13;;
27225;SDS011;14732;51.074;3.788;2022-09-09T01:22:53;5.97;;;1.40;;
27225;SDS011;14732;51.074;3.788;2022-09-09T01:28:29;4.60;;;1.40;;
27225;SDS011;14732;51.074;3.788;2022-09-09T01:31:00;3.60;;;1.23;;
27225;SDS011;14732;51.074;3.788;2022-09-09T01:33:27;7.35;;;1.35;;
27225;SDS011;14732;51.074;3.788;2022-09-09T01:38:25;2.92;;;1.30;;
27225;SDS011;14732;51.074;3.788;2022-09-09T01:40:52;5.05;;;1.30;;
27225;SDS011;14732;51.074;3.788;2022-09-09T01:43:22;4.60;;;1.10;;
27225;SDS011;14732;51.074;3.788;2022-09-09T01:45:49;3.22;;;1.30;;
27225;SDS011;14732;51.074;3.788;2022-09-09T01:48:18;6.38;;;1.30;;
27225;SDS011;14732;51.074;3.788;2022-09-09T01:50:46;4.55;;;1.63;;
27225;SDS011;14732;51.074;3.788;2022-09-09T01:53:11;8.23;;;1.30;;
27225;SDS011;14732;51.074;3.788;2022-09-09T01:55:39;7.32;;;1.50;;
27225;SDS011;14732;51.074;3.788;2022-09-09T02:00:52;6.65;;;1.20;;
27225;SDS011;14732;51.074;3.788;2022-09-09T02:03:53;7.70;;;1.60;;
27225;SDS011;14732;51.074;3.788;2022-09-09T02:08:59;9.38;;;1.40;;
27225;SDS011;14732;51.074;3.788;2022-09-09T02:11:28;6.97;;;1.10;;
27225;SDS011;14732;51.074;3.788;2022-09-09T02:14:18;9.63;;;1.48;;
27225;SDS011;14732;51.074;3.788;2022-09-09T02:17:16;6.50;;;1.17;;
27225;SDS011;14732;51.074;3.788;2022-09-09T02:19:37;6.75;;;1.30;;
27225;SDS011;14732;51.074;3.788;2022-09-09T02:22:07;6.35;;;1.38;;
27225;SDS011;14732;51.074;3.788;2022-09-09T02:24:33;6.78;;;1.35;;
27225;SDS011;14732;51.074;3.788;2022-09-09T02:27:03;3.42;;;1.27;;
27225;SDS011;14732;51.074;3.788;2022-09-09T02:29:34;9.30;;;1.30;;
27225;SDS011;14732;51.074;3.788;2022-09-09T02:32:06;8.45;;;1.90;;
27225;SDS011;14732;51.074;3.788;2022-09-09T02:34:40;6.45;;;1.52;;
27225;SDS011;14732;51.074;3.788;2022-09-09T02:37:12;11.27;;;1.50;;
27225;SDS011;14732;51.074;3.788;2022-09-09T02:39:42;9.27;;;1.95;;
27225;SDS011;14732;51.074;3.788;2022-09-09T02:42:08;8.02;;;1.60;;
27225;SDS011;14732;51.074;3.788;2022-09-09T02:44:34;5.95;;;1.52;;
27225;SDS011;14732;51.074;3.788;2022-09-09T02:54:34;8.63;;;1.48;;
27225;SDS011;14732;51.074;3.788;2022-09-09T02:59:41;6.38;;;1.27;;
27225;SDS011;14732;51.074;3.788;2022-09-09T03:02:09;11.30;;;1.60;;
27225;SDS011;14732;51.074;3.788;2022-09-09T03:04:36;10.45;;;1.70;;
27225;SDS011;14732;51.074;3.788;2022-09-09T03:07:02;12.65;;;1.73;;
27225;SDS011;14732;51.074;3.788;2022-09-09T03:09:28;9.88;;;2.15;;
27225;SDS011;14732;51.074;3.788;2022-09-09T03:11:55;10.45;;;1.60;;
27225;SDS011;14732;51.074;3.788;2022-09-09T03:14:21;8.88;;;2.25;;
27225;SDS011;14732;51.074;3.788;2022-09-09T03:16:49;10.20;;;1.92;;
27225;SDS011;14732;51.074;3.788;2022-09-09T03:19:16;7.88;;;1.77;;
27225;SDS011;14732;51.074;3.788;2022-09-09T03:21:43;9.70;;;1.67;;
27225;SDS011;14732;51.074;3.788;2022-09-09T03:24:09;8.77;;;1.60;;
27225;SDS011;14732;51.074;3.788;2022-09-09T03:26:35;8.90;;;1.88;;
27225;SDS011;14732;51.074;3.788;2022-09-09T03:29:02;8.60;;;1.88;;
27225;SDS011;14732;51.074;3.788;2022-09-09T03:31:31;11.90;;;1.87;;
27225;SDS011;14732;51.074;3.788;2022-09-09T03:33:57;10.85;;;2.00;;
27225;SDS011;14732;51.074;3.788;2022-09-09T03:36:24;9.57;;;1.92;;
27225;SDS011;14732;51.074;3.788;2022-09-09T03:38:51;11.93;;;1.90;;
27225;SDS011;14732;51.074;3.788;2022-09-09T03:41:17;14.48;;;1.83;;
27225;SDS011;14732;51.074;3.788;2022-09-09T03:43:43;12.43;;;2.03;;
27225;SDS011;14732;51.074;3.788;2022-09-09T03:46:09;14.65;;;2.90;;
27225;SDS011;14732;51.074;3.788;2022-09-09T03:48:35;12.68;;;1.95;;
27225;SDS011;14732;51.074;3.788;2022-09-09T03:51:01;10.63;;;1.80;;
27225;SDS011;14732;51.074;3.788;2022-09-09T03:53:28;9.85;;;2.08;;
27225;SDS011;14732;51.074;3.788;2022-09-09T03:55:55;12.15;;;1.80;;
27225;SDS011;14732;51.074;3.788;2022-09-09T03:58:24;11.40;;;2.00;;
27225;SDS011;14732;51.074;3.788;2022-09-09T04:03:53;16.27;;;1.98;;
27225;SDS011;14732;51.074;3.788;2022-09-09T04:06:23;10.82;;;1.70;;
27225;SDS011;14732;51.074;3.788;2022-09-09T04:08:48;10.93;;;1.75;;
27225;SDS011;14732;51.074;3.788;2022-09-09T04:11:14;9.07;;;1.63;;
27225;SDS011;14732;51.074;3.788;2022-09-09T04:13:41;12.75;;;2.00;;
27225;SDS011;14732;51.074;3.788;2022-09-09T04:16:07;10.13;;;1.75;;
27225;SDS011;14732;51.074;3.788;2022-09-09T04:18:35;13.40;;;2.35;;
27225;SDS011;14732;51.074;3.788;2022-09-09T04:21:01;9.00;;;1.70;;
27225;SDS011;14732;51.074;3.788;2022-09-09T04:23:28;10.02;;;2.08;;
27225;SDS011;14732;51.074;3.788;2022-09-09T04:25:54;12.43;;;1.77;;
27225;SDS011;14732;51.074;3.788;2022-09-09T04:28:22;11.25;;;1.83;;
27225;SDS011;14732;51.074;3.788;2022-09-09T04:30:49;10.27;;;1.92;;
27225;SDS011;14732;51.074;3.788;2022-09-09T04:33:15;13.07;;;1.83;;
27225;SDS011;14732;51.074;3.788;2022-09-09T04:35:46;12.77;;;1.65;;
27225;SDS011;14732;51.074;3.788;2022-09-09T04:38:13;12.82;;;2.20;;
27225;SDS011;14732;51.074;3.788;2022-09-09T04:40:41;10.52;;;1.70;;
27225;SDS011;14732;51.074;3.788;2022-09-09T04:43:08;14.38;;;2.13;;
27225;SDS011;14732;51.074;3.788;2022-09-09T04:45:34;11.00;;;2.13;;
27225;SDS011;14732;51.074;3.788;2022-09-09T04:48:00;13.90;;;2.00;;
27225;SDS011;14732;51.074;3.788;2022-09-09T04:50:27;9.43;;;2.05;;
27225;SDS011;14732;51.074;3.788;2022-09-09T04:52:53;10.70;;;1.83;;
27225;SDS011;14732;51.074;3.788;2022-09-09T04:55:19;11.05;;;1.80;;
27225;SDS011;14732;51.074;3.788;2022-09-09T04:57:45;12.52;;;2.00;;
27225;SDS011;14732;51.074;3.788;2022-09-09T05:00:11;10.48;;;2.25;;
27225;SDS011;14732;51.074;3.788;2022-09-09T05:02:38;11.32;;;2.03;;
27225;SDS011;14732;51.074;3.788;2022-09-09T05:05:04;18.50;;;2.72;;
27225;SDS011;14732;51.074;3.788;2022-09-09T05:07:30;11.20;;;2.00;;
27225;SDS011;14732;51.074;3.788;2022-09-09T05:09:56;10.35;;;1.98;;
27225;SDS011;14732;51.074;3.788;2022-09-09T05:12:22;14.18;;;2.45;;
27225;SDS011;14732;51.074;3.788;2022-09-09T05:14:50;13.25;;;2.40;;
27225;SDS011;14732;51.074;3.788;2022-09-09T05:17:19;11.48;;;2.45;;
27225;SDS011;14732;51.074;3.788;2022-09-09T05:19:44;9.05;;;2.35;;
27225;SDS011;14732;51.074;3.788;2022-09-09T05:22:10;12.20;;;2.60;;
27225;SDS011;14732;51.074;3.788;2022-09-09T05:24:37;10.07;;;2.40;;
27225;SDS011;14732;51.074;3.788;2022-09-09T05:27:03;9.52;;;2.67;;
27225;SDS011;14732;51.074;3.788;2022-09-09T05:29:31;8.85;;;2.20;;
27225;SDS011;14732;51.074;3.788;2022-09-09T05:31:58;11.27;;;2.33;;
27225;SDS011;14732;51.074;3.788;2022-09-09T05:34:24;11.32;;;2.30;;
27225;SDS011;14732;51.074;3.788;2022-09-09T05:36:50;11.00;;;2.20;;
27225;SDS011;14732;51.074;3.788;2022-09-09T05:39:17;10.38;;;1.92;;
27225;SDS011;14732;51.074;3.788;2022-09-09T05:41:42;11.38;;;2.03;;
27225;SDS011;14732;51.074;3.788;2022-09-09T05:44:08;12.52;;;2.22;;
27225;SDS011;14732;51.074;3.788;2022-09-09T05:46:34;9.65;;;2.08;;
27225;SDS011;14732;51.074;3.788;2022-09-09T05:48:59;12.25;;;2.53;;
27225;SDS011;14732;51.074;3.788;2022-09-09T05:51:27;13.25;;;2.20;;
27225;SDS011;14732;51.074;3.788;2022-09-09T05:53:55;11.98;;;2.20;;
27225;SDS011;14732;51.074;3.788;2022-09-09T05:56:24;10.15;;;2.42;;
27225;SDS011;14732;51.074;3.788;2022-09-09T05:58:51;14.60;;;2.15;;
27225;SDS011;14732;51.074;3.788;2022-09-09T06:01:25;9.50;;;2.08;;
27225;SDS011;14732;51.074;3.788;2022-09-09T06:03:52;9.00;;;1.77;;
27225;SDS011;14732;51.074;3.788;2022-09-09T06:06:19;12.95;;;2.05;;
27225;SDS011;14732;51.074;3.788;2022-09-09T06:08:46;11.38;;;1.90;;
27225;SDS011;14732;51.074;3.788;2022-09-09T06:11:14;9.38;;;1.80;;
27225;SDS011;14732;51.074;3.788;2022-09-09T06:13:51;11.15;;;1.88;;
27225;SDS011;14732;51.074;3.788;2022-09-09T06:16:19;13.30;;;1.88;;
27225;SDS011;14732;51.074;3.788;2022-09-09T06:21:18;8.13;;;2.10;;
27225;SDS011;14732;51.074;3.788;2022-09-09T06:23:48;9.40;;;2.05;;
27225;SDS011;14732;51.074;3.788;2022-09-09T06:26:17;10.48;;;1.92;;
27225;SDS011;14732;51.074;3.788;2022-09-09T06:28:43;7.60;;;1.90;;
27225;SDS011;14732;51.074;3.788;2022-09-09T06:31:14;12.82;;;2.22;;
27225;SDS011;14732;51.074;3.788;2022-09-09T06:33:47;8.50;;;2.08;;
27225;SDS011;14732;51.074;3.788;2022-09-09T06:36:15;13.18;;;2.25;;
27225;SDS011;14732;51.074;3.788;2022-09-09T06:38:43;18.17;;;2.17;;
27225;SDS011;14732;51.074;3.788;2022-09-09T06:41:10;11.80;;;2.15;;
27225;SDS011;14732;51.074;3.788;2022-09-09T06:43:37;13.02;;;2.72;;
27225;SDS011;14732;51.074;3.788;2022-09-09T06:48:31;11.85;;;2.58;;
27225;SDS011;14732;51.074;3.788;2022-09-09T06:51:04;11.65;;;2.85;;
27225;SDS011;14732;51.074;3.788;2022-09-09T06:53:36;12.90;;;2.72;;
27225;SDS011;14732;51.074;3.788;2022-09-09T06:56:17;10.00;;;2.67;;
27225;SDS011;14732;51.074;3.788;2022-09-09T06:58:43;7.43;;;2.13;;
27225;SDS011;14732;51.074;3.788;2022-09-09T07:01:12;12.48;;;2.13;;
27225;SDS011;14732;51.074;3.788;2022-09-09T07:03:40;9.15;;;1.90;;
27225;SDS011;14732;51.074;3.788;2022-09-09T07:06:07;14.63;;;2.20;;
27225;SDS011;14732;51.074;3.788;2022-09-09T07:08:38;8.75;;;1.92;;
27225;SDS011;14732;51.074;3.788;2022-09-09T07:11:04;11.52;;;2.55;;
27225;SDS011;14732;51.074;3.788;2022-09-09T07:13:31;12.43;;;2.00;;
27225;SDS011;14732;51.074;3.788;2022-09-09T07:16:04;7.93;;;2.15;;
27225;SDS011;14732;51.074;3.788;2022-09-09T07:18:31;10.82;;;1.90;;
27225;SDS011;14732;51.074;3.788;2022-09-09T07:20:56;10.13;;;2.33;;
27225;SDS011;14732;51.074;3.788;2022-09-09T07:23:22;12.27;;;2.20;;
27225;SDS011;14732;51.074;3.788;2022-09-09T07:25:48;6.63;;;1.67;;
27225;SDS011;14732;51.074;3.788;2022-09-09T07:28:15;10.00;;;2.20;;
27225;SDS011;14732;51.074;3.788;2022-09-09T07:30:41;12.18;;;2.05;;
27225;SDS011;14732;51.074;3.788;2022-09-09T07:33:08;13.20;;;2.40;;
27225;SDS011;14732;51.074;3.788;2022-09-09T07:35:37;10.38;;;1.70;;
27225;SDS011;14732;51.074;3.788;2022-09-09T07:38:03;9.18;;;1.70;;
27225;SDS011;14732;51.074;3.788;2022-09-09T07:40:31;6.97;;;1.65;;
27225;SDS011;14732;51.074;3.788;2022-09-09T07:42:59;6.65;;;1.42;;
27225;SDS011;14732;51.074;3.788;2022-09-09T07:45:24;6.18;;;1.60;;
27225;SDS011;14732;51.074;3.788;2022-09-09T07:47:53;6.35;;;1.98;;
27225;SDS011;14732;51.074;3.788;2022-09-09T07:50:21;11.80;;;1.67;;
27225;SDS011;14732;51.074;3.788;2022-09-09T07:52:48;12.00;;;1.88;;
27225;SDS011;14732;51.074;3.788;2022-09-09T07:55:14;7.03;;;1.70;;
27225;SDS011;14732;51.074;3.788;2022-09-09T07:57:40;9.13;;;1.67;;
27225;SDS011;14732;51.074;3.788;2022-09-09T08:00:06;7.38;;;1.70;;
27225;SDS011;14732;51.074;3.788;2022-09-09T08:02:32;9.35;;;1.60;;
27225;SDS011;14732;51.074;3.788;2022-09-09T08:04:57;7.43;;;1.50;;
27225;SDS011;14732;51.074;3.788;2022-09-09T08:07:23;7.30;;;1.70;;
27225;SDS011;14732;51.074;3.788;2022-09-09T08:09:49;11.50;;;1.67;;
27225;SDS011;14732;51.074;3.788;2022-09-09T08:12:15;7.72;;;2.00;;
27225;SDS011;14732;51.074;3.788;2022-09-09T08:14:41;5.95;;;1.65;;
27225;SDS011;14732;51.074;3.788;2022-09-09T08:17:07;7.43;;;1.60;;
27225;SDS011;14732;51.074;3.788;2022-09-09T08:19:33;8.57;;;1.80;;
27225;SDS011;14732;51.074;3.788;2022-09-09T08:22:01;10.32;;;1.60;;
27225;SDS011;14732;51.074;3.788;2022-09-09T08:24:28;11.07;;;2.05;;
27225;SDS011;14732;51.074;3.788;2022-09-09T08:26:54;5.93;;;1.55;;
27225;SDS011;14732;51.074;3.788;2022-09-09T08:29:21;9.25;;;1.83;;
27225;SDS011;14732;51.074;3.788;2022-09-09T08:34:14;8.77;;;1.90;;
27225;SDS011;14732;51.074;3.788;2022-09-09T08:36:41;7.07;;;1.70;;
27225;SDS011;14732;51.074;3.788;2022-09-09T08:39:09;10.57;;;1.98;;
27225;SDS011;14732;51.074;3.788;2022-09-09T08:52:28;7.80;;;1.90;;
27225;SDS011;14732;51.074;3.788;2022-09-09T08:57:57;5.00;;;1.30;;
27225;SDS011;14732;51.074;3.788;2022-09-09T09:00:39;7.68;;;1.70;;
27225;SDS011;14732;51.074;3.788;2022-09-09T09:08:51;6.53;;;1.73;;
27225;SDS011;14732;51.074;3.788;2022-09-09T09:11:19;6.43;;;1.33;;
27225;SDS011;14732;51.074;3.788;2022-09-09T09:16:34;8.48;;;1.63;;
27225;SDS011;14732;51.074;3.788;2022-09-09T09:19:16;3.47;;;1.42;;
27225;SDS011;14732;51.074;3.788;2022-09-09T09:24:19;6.32;;;1.48;;
27225;SDS011;14732;51.074;3.788;2022-09-09T09:29:15;4.40;;;1.48;;
27225;SDS011;14732;51.074;3.788;2022-09-09T09:31:45;3.80;;;1.17;;
27225;SDS011;14732;51.074;3.788;2022-09-09T09:34:17;9.00;;;1.67;;
27225;SDS011;14732;51.074;3.788;2022-09-09T09:39:21;3.83;;;1.10;;
27225;SDS011;14732;51.074;3.788;2022-09-09T09:41:51;3.75;;;1.00;;
27225;SDS011;14732;51.074;3.788;2022-09-09T09:44:27;6.25;;;1.40;;
27225;SDS011;14732;51.074;3.788;2022-09-09T09:49:35;7.28;;;1.65;;
27225;SDS011;14732;51.074;3.788;2022-09-09T09:52:05;6.32;;;1.25;;
27225;SDS011;14732;51.074;3.788;2022-09-09T09:54:33;6.75;;;1.10;;
27225;SDS011;14732;51.074;3.788;2022-09-09T09:57:09;6.93;;;1.45;;
27225;SDS011;14732;51.074;3.788;2022-09-09T09:59:37;6.15;;;1.42;;
27225;SDS011;14732;51.074;3.788;2022-09-09T10:04:39;4.93;;;1.15;;
27225;SDS011;14732;51.074;3.788;2022-09-09T10:07:13;3.70;;;1.08;;
27225;SDS011;14732;51.074;3.788;2022-09-09T10:09:43;4.80;;;1.10;;
27225;SDS011;14732;51.074;3.788;2022-09-09T10:14:44;9.20;;;1.20;;
27225;SDS011;14732;51.074;3.788;2022-09-09T10:17:19;4.60;;;1.40;;
27225;SDS011;14732;51.074;3.788;2022-09-09T10:22:50;3.08;;;1.15;;
27225;SDS011;14732;51.074;3.788;2022-09-09T10:25:32;4.65;;;1.10;;
27225;SDS011;14732;51.074;3.788;2022-09-09T10:31:04;3.55;;;1.20;;
27225;SDS011;14732;51.074;3.788;2022-09-09T10:36:24;3.90;;;1.00;;
27225;SDS011;14732;51.074;3.788;2022-09-09T10:46:58;4.82;;;0.82;;
27225;SDS011;14732;51.074;3.788;2022-09-09T10:52:28;9.57;;;1.00;;
27225;SDS011;14732;51.074;3.788;2022-09-09T10:55:19;3.17;;;1.10;;
27225;SDS011;14732;51.074;3.788;2022-09-09T10:57:50;5.50;;;1.10;;
27225;SDS011;14732;51.074;3.788;2022-09-09T11:00:23;7.28;;;1.20;;
27225;SDS011;14732;51.074;3.788;2022-09-09T11:02:59;3.28;;;1.10;;
27225;SDS011;14732;51.074;3.788;2022-09-09T11:05:41;6.63;;;1.30;;
27225;SDS011;14732;51.074;3.788;2022-09-09T11:10:44;2.90;;;1.00;;
27225;SDS011;14732;51.074;3.788;2022-09-09T11:16:15;5.13;;;1.00;;
27225;SDS011;14732;51.074;3.788;2022-09-09T11:19:02;4.85;;;1.17;;
27225;SDS011;14732;51.074;3.788;2022-09-09T11:21:41;4.15;;;1.10;;
27225;SDS011;14732;51.074;3.788;2022-09-09T11:24:23;3.42;;;0.75;;
27225;SDS011;14732;51.074;3.788;2022-09-09T11:26:54;5.07;;;1.00;;
27225;SDS011;14732;51.074;3.788;2022-09-09T11:40:23;4.07;;;0.95;;
27225;SDS011;14732;51.074;3.788;2022-09-09T11:43:00;3.95;;;0.70;;
27225;SDS011;14732;51.074;3.788;2022-09-09T11:45:29;3.47;;;0.77;;
27225;SDS011;14732;51.074;3.788;2022-09-09T11:47:56;2.95;;;0.82;;
27225;SDS011;14732;51.074;3.788;2022-09-09T11:53:03;3.80;;;0.80;;
27225;SDS011;14732;51.074;3.788;2022-09-09T11:55:38;1.80;;;0.65;;
27225;SDS011;14732;51.074;3.788;2022-09-09T12:00:38;3.78;;;0.88;;
27225;SDS011;14732;51.074;3.788;2022-09-09T12:03:30;3.42;;;0.82;;
27225;SDS011;14732;51.074;3.788;2022-09-09T12:08:55;2.70;;;0.85;;
27225;SDS011;14732;51.074;3.788;2022-09-09T12:11:33;3.13;;;0.80;;
27225;SDS011;14732;51.074;3.788;2022-09-09T12:13:59;4.50;;;0.98;;
27225;SDS011;14732;51.074;3.788;2022-09-09T12:16:38;2.17;;;0.85;;
27225;SDS011;14732;51.074;3.788;2022-09-09T12:19:15;4.47;;;0.82;;
27225;SDS011;14732;51.074;3.788;2022-09-09T12:24:35;3.05;;;0.80;;
27225;SDS011;14732;51.074;3.788;2022-09-09T12:27:20;3.35;;;0.90;;
27225;SDS011;14732;51.074;3.788;2022-09-09T12:32:35;4.38;;;0.70;;
27225;SDS011;14732;51.074;3.788;2022-09-09T12:35:03;3.78;;;1.08;;
27225;SDS011;14732;51.074;3.788;2022-09-09T12:37:36;4.95;;;0.93;;
27225;SDS011;14732;51.074;3.788;2022-09-09T12:42:50;4.32;;;0.98;;
27225;SDS011;14732;51.074;3.788;2022-09-09T12:45:20;4.90;;;0.90;;
27225;SDS011;14732;51.074;3.788;2022-09-09T12:47:59;3.15;;;1.10;;
27225;SDS011;14732;51.074;3.788;2022-09-09T12:50:33;3.60;;;0.80;;
27225;SDS011;14732;51.074;3.788;2022-09-09T12:53:09;3.83;;;0.93;;
27225;SDS011;14732;51.074;3.788;2022-09-09T12:55:48;2.55;;;0.93;;
27225;SDS011;14732;51.074;3.788;2022-09-09T12:58:16;2.80;;;1.00;;
27225;SDS011;14732;51.074;3.788;2022-09-09T13:00:50;6.30;;;1.05;;
27225;SDS011;14732;51.074;3.788;2022-09-09T13:03:18;2.13;;;0.85;;
27225;SDS011;14732;51.074;3.788;2022-09-09T13:05:48;2.63;;;0.88;;
27225;SDS011;14732;51.074;3.788;2022-09-09T13:08:15;3.67;;;1.02;;
27225;SDS011;14732;51.074;3.788;2022-09-09T13:10:58;3.00;;;1.02;;
27225;SDS011;14732;51.074;3.788;2022-09-09T13:16:01;3.22;;;0.93;;
27225;SDS011;14732;51.074;3.788;2022-09-09T13:18:36;2.45;;;0.80;;
27225;SDS011;14732;51.074;3.788;2022-09-09T13:21:05;3.47;;;1.10;;
27225;SDS011;14732;51.074;3.788;2022-09-09T13:23:34;2.90;;;1.20;;
27225;SDS011;14732;51.074;3.788;2022-09-09T13:26:02;2.95;;;1.10;;
27225;SDS011;14732;51.074;3.788;2022-09-09T13:28:46;2.53;;;0.93;;
27225;SDS011;14732;51.074;3.788;2022-09-09T13:31:46;2.13;;;0.93;;
27225;SDS011;14732;51.074;3.788;2022-09-09T13:34:22;2.83;;;0.90;;
27225;SDS011;14732;51.074;3.788;2022-09-09T13:37:09;3.50;;;1.02;;
27225;SDS011;14732;51.074;3.788;2022-09-09T13:39:50;2.25;;;0.70;;
27225;SDS011;14732;51.074;3.788;2022-09-09T13:42:31;2.85;;;0.80;;
27225;SDS011;14732;51.074;3.788;2022-09-09T13:45:00;4.18;;;0.73;;
27225;SDS011;14732;51.074;3.788;2022-09-09T13:47:35;3.05;;;0.90;;
27225;SDS011;14732;51.074;3.788;2022-09-09T13:50:20;2.33;;;0.80;;
27225;SDS011;14732;51.074;3.788;2022-09-09T13:52:47;4.82;;;1.05;;
27225;SDS011;14732;51.074;3.788;2022-09-09T13:55:15;3.42;;;0.82;;
27225;SDS011;14732;51.074;3.788;2022-09-09T13:57:49;3.75;;;1.00;;
27225;SDS011;14732;51.074;3.788;2022-09-09T14:00:16;2.28;;;0.80;;
27225;SDS011;14732;51.074;3.788;2022-09-09T14:02:42;2.78;;;0.90;;
27225;SDS011;14732;51.074;3.788;2022-09-09T14:05:09;3.78;;;1.20;;
27225;SDS011;14732;51.074;3.788;2022-09-09T14:07:35;7.35;;;2.72;;
27225;SDS011;14732;51.074;3.788;2022-09-09T14:10:03;2.92;;;0.80;;
27225;SDS011;14732;51.074;3.788;2022-09-09T14:12:29;3.08;;;0.80;;
27225;SDS011;14732;51.074;3.788;2022-09-09T14:14:55;2.10;;;0.75;;
27225;SDS011;14732;51.074;3.788;2022-09-09T14:17:21;2.45;;;0.73;;
27225;SDS011;14732;51.074;3.788;2022-09-09T14:19:47;4.88;;;0.80;;
27225;SDS011;14732;51.074;3.788;2022-09-09T14:22:13;4.25;;;0.90;;
27225;SDS011;14732;51.074;3.788;2022-09-09T14:24:39;3.28;;;0.88;;
27225;SDS011;14732;51.074;3.788;2022-09-09T14:27:05;3.60;;;0.73;;
27225;SDS011;14732;51.074;3.788;2022-09-09T14:29:31;2.67;;;0.75;;
27225;SDS011;14732;51.074;3.788;2022-09-09T14:31:58;7.97;;;0.98;;
27225;SDS011;14732;51.074;3.788;2022-09-09T14:34:25;2.75;;;0.88;;
27225;SDS011;14732;51.074;3.788;2022-09-09T14:36:51;2.08;;;0.90;;
27225;SDS011;14732;51.074;3.788;2022-09-09T14:39:16;4.28;;;1.10;;
27225;SDS011;14732;51.074;3.788;2022-09-09T14:41:42;2.72;;;0.75;;
27225;SDS011;14732;51.074;3.788;2022-09-09T14:44:08;6.07;;;0.95;;
27225;SDS011;14732;51.074;3.788;2022-09-09T14:46:33;1.83;;;0.90;;
27225;SDS011;14732;51.074;3.788;2022-09-09T14:48:59;4.28;;;1.17;;
27225;SDS011;14732;51.074;3.788;2022-09-09T14:51:25;3.70;;;0.90;;
27225;SDS011;14732;51.074;3.788;2022-09-09T14:53:55;3.63;;;1.08;;
27225;SDS011;14732;51.074;3.788;2022-09-09T14:56:23;2.03;;;1.00;;
27225;SDS011;14732;51.074;3.788;2022-09-09T14:58:52;6.93;;;1.58;;
27225;SDS011;14732;51.074;3.788;2022-09-09T15:01:20;2.73;;;1.37;;
27225;SDS011;14732;51.074;3.788;2022-09-09T15:03:51;6.28;;;1.63;;
27225;SDS011;14732;51.074;3.788;2022-09-09T15:06:22;5.32;;;1.70;;
27225;SDS011;14732;51.074;3.788;2022-09-09T15:08:49;3.17;;;1.60;;
27225;SDS011;14732;51.074;3.788;2022-09-09T15:11:17;2.70;;;1.33;;
27225;SDS011;14732;51.074;3.788;2022-09-09T15:13:43;6.30;;;1.40;;
27225;SDS011;14732;51.074;3.788;2022-09-09T15:16:16;7.78;;;1.40;;
27225;SDS011;14732;51.074;3.788;2022-09-09T15:18:43;3.58;;;1.20;;
27225;SDS011;14732;51.074;3.788;2022-09-09T15:21:20;5.28;;;1.73;;
27225;SDS011;14732;51.074;3.788;2022-09-09T15:23:48;4.80;;;1.30;;
27225;SDS011;14732;51.074;3.788;2022-09-09T15:26:14;4.28;;;1.40;;
27225;SDS011;14732;51.074;3.788;2022-09-09T15:28:40;2.80;;;1.10;;
27225;SDS011;14732;51.074;3.788;2022-09-09T15:31:12;3.95;;;1.20;;
27225;SDS011;14732;51.074;3.788;2022-09-09T15:36:19;5.78;;;1.60;;
27225;SDS011;14732;51.074;3.788;2022-09-09T15:38:50;3.03;;;1.40;;
27225;SDS011;14732;51.074;3.788;2022-09-09T15:41:17;4.95;;;1.42;;
27225;SDS011;14732;51.074;3.788;2022-09-09T15:43:50;3.95;;;1.23;;
27225;SDS011;14732;51.074;3.788;2022-09-09T15:48:51;6.53;;;1.48;;
27225;SDS011;14732;51.074;3.788;2022-09-09T15:51:17;6.53;;;1.38;;
27225;SDS011;14732;51.074;3.788;2022-09-09T15:53:43;5.15;;;1.67;;
27225;SDS011;14732;51.074;3.788;2022-09-09T15:56:10;2.10;;;1.58;;
27225;SDS011;14732;51.074;3.788;2022-09-09T15:58:36;6.10;;;1.95;;
27225;SDS011;14732;51.074;3.788;2022-09-09T16:01:02;3.40;;;1.80;;
27225;SDS011;14732;51.074;3.788;2022-09-09T16:03:29;6.72;;;2.00;;
27225;SDS011;14732;51.074;3.788;2022-09-09T16:06:17;5.80;;;1.88;;
27225;SDS011;14732;51.074;3.788;2022-09-09T16:08:45;7.75;;;2.17;;
27225;SDS011;14732;51.074;3.788;2022-09-09T16:11:21;9.10;;;2.20;;
27225;SDS011;14732;51.074;3.788;2022-09-09T16:13:50;7.18;;;1.95;;
27225;SDS011;14732;51.074;3.788;2022-09-09T16:16:18;5.97;;;1.75;;
27225;SDS011;14732;51.074;3.788;2022-09-09T16:21:18;2.72;;;1.40;;
27225;SDS011;14732;51.074;3.788;2022-09-09T16:23:44;2.58;;;1.48;;
27225;SDS011;14732;51.074;3.788;2022-09-09T16:26:14;4.75;;;1.52;;
27225;SDS011;14732;51.074;3.788;2022-09-09T16:28:40;5.75;;;1.85;;
27225;SDS011;14732;51.074;3.788;2022-09-09T16:31:10;2.85;;;1.30;;
27225;SDS011;14732;51.074;3.788;2022-09-09T16:33:40;5.35;;;2.33;;
27225;SDS011;14732;51.074;3.788;2022-09-09T16:36:07;5.63;;;1.30;;
27225;SDS011;14732;51.074;3.788;2022-09-09T16:38:37;6.60;;;1.45;;
27225;SDS011;14732;51.074;3.788;2022-09-09T16:41:04;4.68;;;1.70;;
27225;SDS011;14732;51.074;3.788;2022-09-09T16:43:31;6.72;;;2.58;;
27225;SDS011;14732;51.074;3.788;2022-09-09T16:46:08;6.32;;;1.60;;
27225;SDS011;14732;51.074;3.788;2022-09-09T16:48:41;4.47;;;1.60;;
27225;SDS011;14732;51.074;3.788;2022-09-09T16:51:09;10.25;;;3.45;;
27225;SDS011;14732;51.074;3.788;2022-09-09T16:53:41;4.47;;;1.65;;
27225;SDS011;14732;51.074;3.788;2022-09-09T16:56:08;4.95;;;1.85;;
27225;SDS011;14732;51.074;3.788;2022-09-09T16:58:36;2.72;;;1.35;;
27225;SDS011;14732;51.074;3.788;2022-09-09T17:01:02;6.55;;;1.90;;
27225;SDS011;14732;51.074;3.788;2022-09-09T17:03:29;4.88;;;1.90;;
27225;SDS011;14732;51.074;3.788;2022-09-09T17:05:56;8.13;;;2.28;;
27225;SDS011;14732;51.074;3.788;2022-09-09T17:08:23;4.72;;;1.70;;
27225;SDS011;14732;51.074;3.788;2022-09-09T17:10:49;5.85;;;2.00;;
27225;SDS011;14732;51.074;3.788;2022-09-09T17:13:15;11.45;;;2.40;;
27225;SDS011;14732;51.074;3.788;2022-09-09T17:15:44;8.77;;;2.90;;
27225;SDS011;14732;51.074;3.788;2022-09-09T17:18:11;7.57;;;2.67;;
27225;SDS011;14732;51.074;3.788;2022-09-09T17:20:41;6.07;;;2.33;;
27225;SDS011;14732;51.074;3.788;2022-09-09T17:23:10;8.65;;;2.05;;
27225;SDS011;14732;51.074;3.788;2022-09-09T17:25:40;5.78;;;1.70;;
27225;SDS011;14732;51.074;3.788;2022-09-09T17:28:08;4.18;;;1.95;;
27225;SDS011;14732;51.074;3.788;2022-09-09T17:30:34;9.02;;;1.80;;
27225;SDS011;14732;51.074;3.788;2022-09-09T17:33:01;6.28;;;1.92;;
27225;SDS011;14732;51.074;3.788;2022-09-09T17:35:28;7.55;;;2.00;;
27225;SDS011;14732;51.074;3.788;2022-09-09T17:37:55;5.22;;;1.90;;
27225;SDS011;14732;51.074;3.788;2022-09-09T17:40:21;6.65;;;2.60;;
27225;SDS011;14732;51.074;3.788;2022-09-09T17:42:47;3.70;;;2.10;;
27225;SDS011;14732;51.074;3.788;2022-09-09T17:45:13;6.18;;;2.13;;
27225;SDS011;14732;51.074;3.788;2022-09-09T17:47:39;6.43;;;2.17;;
27225;SDS011;14732;51.074;3.788;2022-09-09T17:50:07;7.45;;;1.90;;
27225;SDS011;14732;51.074;3.788;2022-09-09T17:52:35;5.88;;;2.22;;